Time;durP1;ratioP1;P1;durP2;ratioP2;P2;SDS_P1;SDS_P2;PMS_P1;PMS_P2;Temp;Humidity;BMP_temperature;BMP_pressure;BME280_temperature;BME280_humidity;BME280_pressure;Samples;Min_cycle;Max_cycle;Signal;HPM_P1;HPM_P2
2021/12/28 00:01:22;;;;;;;29.37;20.80;;;7.90;1.00;;;;;;5068866;28;20201;-56
2021/12/28 00:03:50;;;;;;;11.57;9.23;;;7.90;1.00;;;;;;5087141;28;20254;-56
2021/12/28 00:06:18;;;;;;;8.43;6.93;;;7.90;1.00;;;;;;5067857;28;20205;-56
2021/12/28 00:08:45;;;;;;;15.17;11.90;;;7.80;1.00;;;;;;5089061;28;20285;-57
2021/12/28 00:11:13;;;;;;;21.20;15.17;;;7.80;1.00;;;;;;5088526;28;20595;-57
2021/12/28 00:13:41;;;;;;;18.70;12.90;;;7.70;1.00;;;;;;5090440;28;20742;-57
2021/12/28 00:18:44;;;;;;;33.73;20.60;;;7.70;1.00;;;;;;5088647;28;20187;-57
2021/12/28 00:21:11;;;;;;;59.53;38.30;;;7.70;1.00;;;;;;5086423;28;20673;-56
2021/12/28 00:23:39;;;;;;;33.77;23.80;;;7.80;1.00;;;;;;5086987;28;20716;-58
2021/12/28 00:26:13;;;;;;;36.20;24.27;;;7.60;1.00;;;;;;5089305;28;20194;-57
2021/12/28 00:28:43;;;;;;;18.37;15.10;;;7.60;1.00;;;;;;5090159;28;20202;-58
2021/12/28 00:31:15;;;;;;;11.17;10.13;;;7.60;1.00;;;;;;5083064;28;20287;-56
2021/12/28 00:33:44;;;;;;;7.43;6.80;;;7.70;1.00;;;;;;5087567;28;20224;-57
2021/12/28 00:36:12;;;;;;;13.77;12.37;;;7.90;1.00;;;;;;5069819;28;20206;-57
2021/12/28 00:38:39;;;;;;;8.40;7.57;;;7.80;1.00;;;;;;5088514;28;20243;-56
2021/12/28 00:41:06;;;;;;;13.43;9.10;;;7.80;1.00;;;;;;5088853;28;20217;-58
2021/12/28 00:43:34;;;;;;;26.40;16.93;;;7.90;1.00;;;;;;5088520;28;20186;-57
2021/12/28 00:46:03;;;;;;;27.40;15.33;;;7.90;1.00;;;;;;5088456;28;20225;-57
2021/12/28 00:48:31;;;;;;;17.57;11.40;;;7.90;1.00;;;;;;5087902;28;20198;-57
2021/12/28 00:50:58;;;;;;;11.90;6.33;;;7.90;1.00;;;;;;5087814;28;20653;-56
2021/12/28 00:53:25;;;;;;;18.03;12.10;;;8.00;1.00;;;;;;5052204;28;20718;-56
2021/12/28 00:55:52;;;;;;;17.50;10.03;;;8.00;1.00;;;;;;5070784;28;20279;-56
2021/12/28 00:58:21;;;;;;;20.13;11.60;;;;;;;;;;5086944;28;20259;-57
2021/12/28 01:00:48;;;;;;;16.87;9.50;;;7.90;1.00;;;;;;5085406;28;20198;-57
2021/12/28 01:03:16;;;;;;;39.90;23.90;;;8.00;1.00;;;;;;5067588;28;20247;-56
2021/12/28 01:05:44;;;;;;;6.97;4.33;;;8.00;1.00;;;;;;5086463;28;20882;-57
2021/12/28 01:08:11;;;;;;;36.93;19.83;;;8.00;1.00;;;;;;5086552;28;20202;-57
2021/12/28 01:10:44;;;;;;;34.10;16.27;;;8.00;1.00;;;;;;5084556;28;20197;-57
2021/12/28 01:13:12;;;;;;;12.37;6.50;;;8.00;1.00;;;;;;5086093;28;20194;-57
2021/12/28 01:15:40;;;;;;;12.17;6.37;;;8.00;1.00;;;;;;5088691;28;20722;-57
2021/12/28 01:18:07;;;;;;;10.70;5.40;;;8.00;1.00;;;;;;5057106;28;20252;-57
2021/12/28 01:20:35;;;;;;;12.20;6.67;;;8.10;1.00;;;;;;5088605;28;20256;-57
2021/12/28 01:23:03;;;;;;;27.77;13.40;;;8.10;1.00;;;;;;5089627;28;20603;-57
2021/12/28 01:25:30;;;;;;;7.63;4.47;;;8.00;1.00;;;;;;5088912;28;20186;-56
2021/12/28 01:27:57;;;;;;;17.33;9.43;;;7.90;1.00;;;;;;5089697;28;20221;-56
2021/12/28 01:30:26;;;;;;;17.57;9.80;;;7.80;1.00;;;;;;5091572;28;20648;-57
2021/12/28 01:32:54;;;;;;;47.93;24.00;;;7.70;1.00;;;;;;5088164;28;20209;-57
2021/12/28 01:35:21;;;;;;;27.60;13.37;;;7.70;1.00;;;;;;5088836;28;20585;-57
2021/12/28 01:37:49;;;;;;;19.87;9.93;;;7.70;1.00;;;;;;5089417;28;20216;-57
2021/12/28 01:40:26;;;;;;;37.93;15.23;;;7.60;1.00;;;;;;5081770;28;20722;-57
2021/12/28 01:43:18;;;;;;;29.20;11.83;;;7.50;33.10;;;;;;5071594;28;20190;-57
2021/12/28 01:45:52;;;;;;;15.67;6.73;;;7.50;26.50;;;;;;5058772;28;20214;-57
2021/12/28 01:48:22;;;;;;;26.13;10.23;;;7.50;1.00;;;;;;5087525;28;20661;-57
2021/12/28 01:50:52;;;;;;;24.60;9.27;;;7.50;92.10;;;;;;5086743;28;20255;-57
2021/12/28 01:53:20;;;;;;;35.97;14.70;;;7.40;99.90;;;;;;5087625;28;20194;-57
2021/12/28 01:55:49;;;;;;;54.03;21.23;;;7.30;99.90;;;;;;5069057;28;20206;-57
2021/12/28 01:58:17;;;;;;;37.83;14.67;;;7.30;99.90;;;;;;5070366;28;20210;-57
2021/12/28 02:00:46;;;;;;;55.53;21.50;;;7.20;99.90;;;;;;5088351;28;20186;-56
2021/12/28 02:03:17;;;;;;;56.53;22.77;;;7.10;99.90;;;;;;5088204;28;20186;-56
2021/12/28 02:05:44;;;;;;;83.30;31.30;;;7.10;99.90;;;;;;5072714;28;20252;-56
2021/12/28 02:08:15;;;;;;;75.87;30.10;;;7.10;99.90;;;;;;5088488;28;20194;-56
2021/12/28 02:10:44;;;;;;;48.10;19.63;;;7.10;99.90;;;;;;5072088;28;20194;-56
2021/12/28 02:13:12;;;;;;;59.83;24.30;;;7.00;99.90;;;;;;5085519;28;20186;-56
2021/12/28 02:15:39;;;;;;;25.70;11.07;;;7.00;1.00;;;;;;5085440;28;20218;-56
2021/12/28 02:18:08;;;;;;;12.00;4.67;;;6.90;1.00;;;;;;5087825;28;20755;-57
2021/12/28 02:20:36;;;;;;;8.87;4.77;;;5.10;1.00;;;;;;5067691;28;20218;-57
2021/12/28 02:23:04;;;;;;;15.13;7.43;;;6.80;1.00;;;;;;5086950;28;20194;-56
2021/12/28 02:25:35;;;;;;;20.20;10.37;;;6.70;1.00;;;;;;5070096;28;20251;-57
2021/12/28 02:28:05;;;;;;;36.70;17.70;;;6.80;1.00;;;;;;5069589;28;20665;-57
2021/12/28 02:30:33;;;;;;;18.60;8.37;;;6.70;1.00;;;;;;5087257;28;20226;-57
2021/12/28 02:33:00;;;;;;;14.70;8.73;;;6.70;1.00;;;;;;5088064;28;20190;-57
2021/12/28 02:35:27;;;;;;;44.00;22.73;;;6.60;1.00;;;;;;5084772;28;20284;-57
2021/12/28 02:37:55;;;;;;;18.23;9.37;;;6.60;1.00;;;;;;5069158;28;20628;-57
2021/12/28 02:40:29;;;;;;;9.43;4.77;;;6.70;17.80;;;;;;5088101;28;20195;-57
2021/12/28 02:42:59;;;;;;;61.33;29.07;;;6.60;1.00;;;;;;5086152;28;20872;-57
2021/12/28 02:45:29;;;;;;;12.20;5.87;;;6.50;1.00;;;;;;5087216;28;20190;-57
2021/12/28 02:47:56;;;;;;;55.83;24.37;;;6.60;61.40;;;;;;5064516;28;20533;-57
2021/12/28 02:50:39;;;;;;;17.17;9.63;;;6.60;71.50;;;;;;5066613;28;20203;-56
2021/12/28 02:53:09;;;;;;;19.07;9.87;;;6.60;24.40;;;;;;5086518;28;20244;-57
2021/12/28 02:55:39;;;;;;;27.50;13.60;;;6.60;1.00;;;;;;5087184;28;20214;-57
2021/12/28 02:58:08;;;;;;;45.00;20.13;;;6.60;9.10;;;;;;5086340;28;20270;-57
2021/12/28 03:00:58;;;;;;;17.90;6.03;;;6.60;1.00;;;;;;5087984;28;20283;-57
2021/12/28 03:03:27;;;;;;;33.97;14.10;;;6.70;86.70;;;;;;5086742;28;20228;-57
2021/12/28 03:05:57;;;;;;;14.20;6.47;;;6.60;99.90;;;;;;5088816;28;20297;-56
2021/12/28 03:08:26;;;;;;;11.27;5.37;;;6.60;60.70;;;;;;5086962;28;20194;-57
2021/12/28 03:10:54;;;;;;;12.10;5.70;;;6.60;99.90;;;;;;5088927;28;20198;-57
2021/12/28 03:13:26;;;;;;;13.10;5.30;;;6.60;99.90;;;;;;5069988;28;20907;-58
2021/12/28 03:15:53;;;;;;;10.10;4.40;;;6.60;99.90;;;;;;5070735;28;20267;-58
2021/12/28 03:18:22;;;;;;;10.07;4.83;;;6.50;99.90;;;;;;5088521;28;20187;-57
2021/12/28 03:20:49;;;;;;;8.57;5.30;;;6.50;99.90;;;;;;5088151;28;20214;-58
2021/12/28 03:23:21;;;;;;;15.17;5.60;;;6.50;99.90;;;;;;5087425;28;20201;-57
2021/12/28 03:25:49;;;;;;;12.47;4.90;;;6.40;99.90;;;;;;5085482;28;20206;-59
2021/12/28 03:28:18;;;;;;;12.37;4.70;;;6.40;1.00;;;;;;5086053;28;20266;-57
2021/12/28 03:30:46;;;;;;;10.93;5.20;;;6.40;1.00;;;;;;5085456;28;20287;-57
2021/12/28 03:33:13;;;;;;;11.67;5.67;;;6.40;1.00;;;;;;5087664;28;20198;-59
2021/12/28 03:35:40;;;;;;;10.00;4.70;;;6.40;1.00;;;;;;5086199;28;20206;-59
2021/12/28 03:38:07;;;;;;;16.40;5.10;;;6.40;1.00;;;;;;5087946;28;20259;-58
2021/12/28 03:40:34;;;;;;;11.83;4.80;;;6.40;1.00;;;;;;5071583;28;20640;-59
2021/12/28 03:43:02;;;;;;;11.70;5.13;;;6.60;1.00;;;;;;5086879;28;20225;-59
2021/12/28 03:45:29;;;;;;;14.97;4.57;;;6.50;1.00;;;;;;5067360;28;20226;-58
2021/12/28 03:47:58;;;;;;;14.27;5.30;;;6.40;1.00;;;;;;5069212;28;20656;-60
2021/12/28 03:50:25;;;;;;;13.13;4.50;;;6.50;1.00;;;;;;5068613;28;20661;-59
2021/12/28 03:52:54;;;;;;;15.17;4.93;;;6.60;1.00;;;;;;5070614;28;20622;-60
2021/12/28 03:55:25;;;;;;;9.07;4.57;;;6.60;1.00;;;;;;5070831;28;20202;-59
2021/12/28 03:57:53;;;;;;;13.47;4.50;;;6.60;1.00;;;;;;5086786;28;21171;-60
2021/12/28 04:00:23;;;;;;;17.97;4.77;;;6.70;1.00;;;;;;5063456;28;20191;-59
2021/12/28 04:02:50;;;;;;;12.23;4.13;;;6.70;1.00;;;;;;5087222;28;20218;-58
2021/12/28 04:05:17;;;;;;;12.27;4.33;;;6.70;1.00;;;;;;5088831;28;20201;-59
2021/12/28 04:07:48;;;;;;;12.77;5.17;;;6.80;1.00;;;;;;5052672;28;20225;-59
2021/12/28 04:10:27;;;;;;;13.73;4.20;;;6.70;99.90;;;;;;5087971;28;20660;-60
2021/12/28 04:12:55;;;;;;;11.07;4.33;;;6.70;99.90;;;;;;5088578;28;20215;-60
2021/12/28 04:15:22;;;;;;;13.13;4.70;;;6.70;99.90;;;;;;5085014;28;20281;-59
2021/12/28 04:17:49;;;;;;;12.97;4.00;;;6.60;99.90;;;;;;5089843;28;20202;-59
2021/12/28 04:20:19;;;;;;;13.83;4.70;;;6.60;99.90;;;;;;5082627;28;20214;-59
2021/12/28 04:22:47;;;;;;;15.13;4.00;;;6.60;99.90;;;;;;5068188;28;20665;-59
2021/12/28 04:25:17;;;;;;;12.50;3.83;;;6.60;99.90;;;;;;5085260;28;20295;-60
2021/12/28 04:27:44;;;;;;;11.20;3.63;;;6.60;1.00;;;;;;5062491;28;20225;-59
2021/12/28 04:30:14;;;;;;;13.47;3.90;;;6.70;99.90;;;;;;5084861;28;20677;-59
2021/12/28 04:32:42;;;;;;;10.60;3.63;;;6.80;1.00;;;;;;5086503;28;20592;-58
2021/12/28 04:35:11;;;;;;;16.17;5.03;;;6.60;99.90;;;;;;5086754;28;20194;-59
2021/12/28 04:37:39;;;;;;;16.03;4.40;;;6.50;1.00;;;;;;5084942;28;20301;-59
2021/12/28 04:40:09;;;;;;;8.30;3.33;;;6.60;99.90;;;;;;5085512;28;20875;-57
2021/12/28 04:42:38;;;;;;;16.67;3.53;;;6.60;1.00;;;;;;5085101;28;20186;-57
2021/12/28 04:45:09;;;;;;;14.70;3.97;;;6.60;99.90;;;;;;5087695;28;20278;-58
2021/12/28 04:47:37;;;;;;;13.37;3.60;;;6.70;1.00;;;;;;5088442;28;20222;-58
2021/12/28 04:50:06;;;;;;;13.47;3.70;;;6.50;1.00;;;;;;5071421;28;20194;-56
2021/12/28 04:52:36;;;;;;;14.40;3.97;;;6.50;99.90;;;;;;5090868;28;20198;-57
2021/12/28 04:55:06;;;;;;;13.53;4.27;;;6.40;99.90;;;;;;5088038;28;20285;-58
2021/12/28 04:57:33;;;;;;;12.70;3.90;;;6.40;1.00;;;;;;5091457;28;20210;-58
2021/12/28 05:00:01;;;;;;;12.70;3.77;;;6.40;1.00;;;;;;5091490;28;20198;-58
2021/12/28 05:02:28;;;;;;;12.17;4.63;;;6.50;1.00;;;;;;5073386;28;20785;-57
2021/12/28 05:04:55;;;;;;;12.40;4.10;;;6.50;1.00;;;;;;5089944;28;20209;-57
2021/12/28 05:07:22;;;;;;;18.70;4.10;;;6.40;1.00;;;;;;5092957;28;20256;-58
2021/12/28 05:09:50;;;;;;;13.43;4.23;;;6.40;1.00;;;;;;5091689;28;20199;-59
2021/12/28 05:12:17;;;;;;;15.03;4.30;;;6.40;1.00;;;;;;5065676;28;20339;-58
2021/12/28 05:14:44;;;;;;;19.53;4.47;;;6.40;1.00;;;;;;5049936;28;20206;-58
2021/12/28 05:17:11;;;;;;;23.00;4.90;;;6.40;1.00;;;;;;5064170;28;20217;-58
2021/12/28 05:19:38;;;;;;;20.03;4.27;;;6.40;1.00;;;;;;5091604;28;20221;-59
2021/12/28 05:22:08;;;;;;;14.27;4.00;;;6.40;1.00;;;;;;5090574;28;21213;-59
2021/12/28 05:24:44;;;;;;;16.40;4.47;;;6.30;1.00;;;;;;5090552;28;20191;-58
2021/12/28 05:27:11;;;;;;;18.07;4.33;;;6.30;1.00;;;;;;5090803;28;20186;-58
2021/12/28 05:29:38;;;;;;;16.87;4.30;;;6.30;1.00;;;;;;5072857;28;20190;-59
2021/12/28 05:32:05;;;;;;;23.20;5.13;;;6.20;1.00;;;;;;5089484;28;20237;-59
2021/12/28 05:34:32;;;;;;;18.43;4.10;;;6.20;14.00;;;;;;5088085;28;20282;-59
2021/12/28 05:36:59;;;;;;;18.73;4.27;;;6.20;99.90;;;;;;5089152;28;20218;-60
2021/12/28 05:39:26;;;;;;;24.60;5.90;;;6.30;99.90;;;;;;5072170;28;20243;-59
2021/12/28 05:41:53;;;;;;;21.33;5.43;;;6.40;99.90;;;;;;5092665;28;20191;-59
2021/12/28 05:44:20;;;;;;;19.57;4.13;;;6.50;1.00;;;;;;5069655;28;20229;-59
2021/12/28 05:46:47;;;;;;;23.23;5.13;;;6.50;1.00;;;;;;5072299;28;20206;-60
2021/12/28 05:49:14;;;;;;;18.87;4.83;;;6.60;99.90;;;;;;5088949;28;20194;-59
2021/12/28 05:51:42;;;;;;;22.37;4.40;;;6.60;99.90;;;;;;5089800;28;20220;-60
2021/12/28 05:54:09;;;;;;;19.03;4.73;;;6.70;99.90;;;;;;5090767;28;20222;-59
2021/12/28 05:56:36;;;;;;;17.90;4.07;;;6.70;99.90;;;;;;5071111;28;20209;-60
2021/12/28 05:59:04;;;;;;;15.07;4.40;;;6.70;39.00;;;;;;5089787;28;20247;-60
2021/12/28 06:01:31;;;;;;;20.90;4.63;;;6.70;12.50;;;;;;5068087;28;20286;-60
2021/12/28 06:03:59;;;;;;;17.80;4.17;;;6.70;1.00;;;;;;5090099;28;20190;-60
2021/12/28 06:06:26;;;;;;;18.17;4.13;;;6.80;1.00;;;;;;5071794;28;20206;-60
2021/12/28 06:08:57;;;;;;;15.93;4.13;;;6.80;1.00;;;;;;5088777;28;20665;-60
2021/12/28 06:11:24;;;;;;;14.30;4.50;;;6.80;1.00;;;;;;5072351;28;20202;-59
2021/12/28 06:13:54;;;;;;;23.30;5.17;;;6.90;1.00;;;;;;5087986;28;20202;-60
2021/12/28 06:16:30;;;;;;;16.57;3.93;;;6.90;1.00;;;;;;5064711;28;20214;-60
2021/12/28 06:18:57;;;;;;;21.03;4.50;;;6.80;1.00;;;;;;5088800;28;20197;-60
2021/12/28 06:21:26;;;;;;;17.90;4.97;;;6.80;99.90;;;;;;5088177;28;20210;-60
2021/12/28 06:23:53;;;;;;;21.17;5.23;;;6.70;99.90;;;;;;5091754;28;20194;-60
2021/12/28 06:26:20;;;;;;;22.77;4.83;;;6.80;1.00;;;;;;5090373;28;20251;-60
2021/12/28 06:28:47;;;;;;;19.60;5.00;;;6.80;1.00;;;;;;5088202;28;20257;-60
2021/12/28 06:31:14;;;;;;;16.80;4.40;;;6.70;99.90;;;;;;5090487;28;20234;-60
2021/12/28 06:33:41;;;;;;;21.20;4.83;;;6.60;99.90;;;;;;5087967;28;20723;-60
2021/12/28 06:36:08;;;;;;;21.93;5.07;;;6.60;99.90;;;;;;5089210;28;20259;-60
2021/12/28 06:38:35;;;;;;;19.77;5.33;;;6.50;1.00;;;;;;5054219;28;20227;-59
2021/12/28 06:41:03;;;;;;;25.47;5.17;;;6.50;1.00;;;;;;5090529;28;20657;-60
2021/12/28 06:43:30;;;;;;;12.70;4.47;;;6.50;1.00;;;;;;5072202;28;20198;-59
2021/12/28 06:45:57;;;;;;;18.13;5.43;;;6.50;1.00;;;;;;5054149;28;20252;-60
2021/12/28 06:48:24;;;;;;;18.87;4.33;;;6.50;1.00;;;;;;5089865;28;20190;-59
2021/12/28 06:50:51;;;;;;;20.77;5.77;;;6.40;1.00;;;;;;5083724;28;20252;-59
2021/12/28 06:53:18;;;;;;;16.53;5.57;;;6.30;1.00;;;;;;5090637;28;20219;-59
2021/12/28 06:55:46;;;;;;;21.57;5.53;;;6.40;6.20;;;;;;5089328;28;20247;-62
2021/12/28 06:58:13;;;;;;;15.20;4.77;;;6.50;99.90;;;;;;5086788;28;20237;-60
2021/12/28 07:00:40;;;;;;;19.57;4.97;;;6.50;99.90;;;;;;5090178;28;20302;-60
2021/12/28 07:03:07;;;;;;;22.37;6.30;;;6.60;99.90;;;;;;5086739;28;20273;-60
2021/12/28 07:05:35;;;;;;;19.47;4.70;;;6.60;94.30;;;;;;5070863;28;20210;-59
2021/12/28 07:08:02;;;;;;;19.47;5.80;;;6.70;1.00;;;;;;5089640;28;20206;-59
2021/12/28 07:10:29;;;;;;;15.67;5.07;;;6.70;1.00;;;;;;5088455;28;20228;-59
2021/12/28 07:12:56;;;;;;;17.53;4.87;;;6.80;1.00;;;;;;5064958;28;20230;-59
2021/12/28 07:15:23;;;;;;;19.90;4.50;;;6.80;1.00;;;;;;5070984;28;20194;-59
2021/12/28 07:17:53;;;;;;;14.77;4.50;;;6.80;1.00;;;;;;5087012;28;20210;-60
2021/12/28 07:20:20;;;;;;;18.27;4.27;;;6.80;99.90;;;;;;5089367;28;20241;-58
2021/12/28 07:22:47;;;;;;;17.47;5.27;;;6.70;99.90;;;;;;5070451;28;20590;-58
2021/12/28 07:25:14;;;;;;;17.50;5.53;;;6.70;99.90;;;;;;5088499;28;20202;-59
2021/12/28 07:27:41;;;;;;;12.80;4.73;;;6.70;99.90;;;;;;5073047;28;20236;-59
2021/12/28 07:30:11;;;;;;;13.97;4.57;;;6.60;99.90;;;;;;5071383;28;20210;-61
2021/12/28 07:32:40;;;;;;;15.97;5.27;;;6.70;99.90;;;;;;5070893;28;20812;-60
2021/12/28 07:35:08;;;;;;;14.47;4.27;;;6.70;99.90;;;;;;5073127;28;20230;-60
2021/12/28 07:37:35;;;;;;;11.03;4.73;;;6.70;99.90;;;;;;5087313;28;20210;-60
2021/12/28 07:40:05;;;;;;;14.83;4.37;;;6.70;99.90;;;;;;5090408;28;20269;-60
2021/12/28 07:42:33;;;;;;;13.50;4.93;;;6.70;99.90;;;;;;5089810;28;20261;-60
2021/12/28 07:45:00;;;;;;;12.07;4.87;;;6.70;99.90;;;;;;5078751;28;20678;-60
2021/12/28 07:47:27;;;;;;;15.90;5.37;;;6.70;99.90;;;;;;5087922;28;20251;-60
2021/12/28 07:49:54;;;;;;;10.57;4.97;;;6.60;1.00;;;;;;5069968;28;20240;-60
2021/12/28 07:52:21;;;;;;;15.10;4.60;;;6.60;1.00;;;;;;5069968;28;20205;-60
2021/12/28 07:54:47;;;;;;;13.27;4.77;;;6.60;1.00;;;;;;5089133;28;20225;-60
2021/12/28 07:57:14;;;;;;;11.50;4.50;;;6.60;1.00;;;;;;5054031;28;20624;-60
2021/12/28 07:59:41;;;;;;;11.30;4.60;;;6.70;1.00;;;;;;5087310;28;20194;-60
2021/12/28 08:02:08;;;;;;;12.80;4.37;;;6.70;1.00;;;;;;5070011;28;20208;-60
2021/12/28 08:04:36;;;;;;;10.07;4.80;;;6.80;1.00;;;;;;5088852;28;20221;-60
2021/12/28 08:07:08;;;;;;;10.00;4.30;;;6.80;1.00;;;;;;5085867;28;20194;-60
2021/12/28 08:09:35;;;;;;;15.90;4.13;;;6.90;1.00;;;;;;5087000;28;20194;-60
2021/12/28 08:12:02;;;;;;;13.47;4.80;;;7.00;1.00;;;;;;5087038;28;20217;-60
2021/12/28 08:14:29;;;;;;;7.53;3.70;;;7.00;1.00;;;;;;5069942;28;20217;-60
2021/12/28 08:16:56;;;;;;;11.27;4.20;;;7.10;1.00;;;;;;5089505;28;20270;-60
2021/12/28 08:19:23;;;;;;;11.67;4.33;;;7.20;99.90;;;;;;5088001;28;20231;-60
2021/12/28 08:21:50;;;;;;;7.80;3.97;;;7.40;99.90;;;;;;5083778;28;20210;-60
2021/12/28 08:24:17;;;;;;;10.10;3.60;;;7.70;1.00;;;;;;5069441;28;20692;-60
2021/12/28 08:26:44;;;;;;;9.33;5.80;;;7.80;1.00;;;;;;5089858;28;20195;-61
2021/12/28 08:29:11;;;;;;;5.80;3.53;;;8.10;99.90;;;;;;5085559;28;20259;-60
2021/12/28 08:31:39;;;;;;;4.57;3.40;;;8.20;99.90;;;;;;5070749;28;20279;-60
2021/12/28 08:34:07;;;;;;;9.23;3.60;;;8.30;50.90;;;;;;5071713;28;20230;-60
2021/12/28 08:36:34;;;;;;;27.93;22.13;;;8.50;31.40;;;;;;5088045;28;20194;-60
2021/12/28 08:39:02;;;;;;;4.60;2.37;;;8.70;1.00;;;;;;5088300;28;21025;-60
2021/12/28 08:41:29;;;;;;;2.90;2.30;;;9.00;1.00;;;;;;5072490;28;20730;-60
2021/12/28 08:43:56;;;;;;;24.67;15.97;;;9.10;1.00;;;;;;5087387;28;20183;-60
2021/12/28 08:46:23;;;;;;;10.70;5.20;;;9.20;1.00;;;;;;5088086;28;20273;-60
2021/12/28 08:48:51;;;;;;;19.80;14.37;;;9.30;1.00;;;;;;5088258;28;20248;-61
2021/12/28 08:51:18;;;;;;;4.47;2.37;;;9.40;99.90;;;;;;5046049;28;20198;-60
2021/12/28 08:53:45;;;;;;;4.23;1.93;;;9.60;99.90;;;;;;5087531;28;20741;-60
2021/12/28 08:56:12;;;;;;;5.67;2.00;;;9.90;99.90;;;;;;5087211;28;20193;-60
2021/12/28 08:58:39;;;;;;;11.23;7.10;;;10.10;99.90;;;;;;5080795;28;20693;-60
2021/12/28 09:01:06;;;;;;;2.80;2.20;;;10.30;80.80;;;;;;5070490;28;20230;-60
2021/12/28 09:03:33;;;;;;;2.23;1.60;;;10.20;44.20;;;;;;5085658;28;20213;-60
2021/12/28 09:06:02;;;;;;;3.20;1.43;;;10.30;27.70;;;;;;5068696;28;20202;-60
2021/12/28 09:08:29;;;;;;;3.40;3.00;;;10.20;27.90;;;;;;5088267;28;20267;-61
2021/12/28 09:10:56;;;;;;;4.90;4.40;;;10.20;1.00;;;;;;5053217;28;20236;-61
2021/12/28 09:13:23;;;;;;;3.57;1.63;;;10.20;7.60;;;;;;5087280;28;20198;-60
2021/12/28 09:15:50;;;;;;;5.90;5.33;;;10.40;1.00;;;;;;5083210;28;20222;-61
2021/12/28 09:18:17;;;;;;;5.07;1.80;;;10.50;1.00;;;;;;5086281;28;20222;-61
2021/12/28 09:20:45;;;;;;;1.90;1.60;;;10.40;1.00;;;;;;5088802;28;20709;-61
2021/12/28 09:23:13;;;;;;;4.50;1.60;;;10.40;1.00;;;;;;5085009;28;21171;-61
2021/12/28 09:25:40;;;;;;;4.03;1.60;;;10.20;1.00;;;;;;5085213;28;20194;-59
2021/12/28 09:28:08;;;;;;;2.80;1.37;;;10.10;45.90;;;;;;5087454;28;20244;-59
2021/12/28 09:30:37;;;;;;;1.30;1.10;;;10.00;84.70;;;;;;5089498;28;20634;-58
2021/12/28 09:33:04;;;;;;;1.70;1.10;;;9.90;80.80;;;;;;5070489;28;20187;-58
2021/12/28 09:35:32;;;;;;;2.43;1.27;;;9.90;99.90;;;;;;5089634;28;20194;-57
2021/12/28 09:37:59;;;;;;;1.67;1.17;;;9.90;99.90;;;;;;5080896;28;20241;-59
2021/12/28 09:40:29;;;;;;;7.70;2.00;;;10.00;99.90;;;;;;5089861;28;20212;-61
2021/12/28 09:42:57;;;;;;;3.20;2.67;;;10.00;99.90;;;;;;5087076;28;20193;-61
2021/12/28 09:45:24;;;;;;;7.43;2.47;;;10.00;99.90;;;;;;5089757;28;20232;-62
2021/12/28 09:47:51;;;;;;;8.63;6.30;;;10.00;99.90;;;;;;5088603;28;20272;-62
2021/12/28 09:50:18;;;;;;;8.60;6.83;;;10.00;99.90;;;;;;5083364;28;20301;-62
2021/12/28 09:52:47;;;;;;;6.73;4.87;;;10.00;99.90;;;;;;5090868;28;20190;-62
2021/12/28 09:55:21;;;;;;;3.70;3.13;;;9.90;99.90;;;;;;5091995;28;20194;-61
2021/12/28 09:57:49;;;;;;;1.90;1.60;;;9.90;99.90;;;;;;5074031;28;20198;-61
2021/12/28 10:00:19;;;;;;;1.77;1.60;;;9.80;99.90;;;;;;5088170;28;20681;-61
2021/12/28 10:03:06;;;;;;;2.60;2.40;;;10.00;99.90;;;;;;5072607;28;20657;-62
2021/12/28 10:05:33;;;;;;;2.40;1.60;;;10.90;1.00;;;;;;5092042;28;20202;-62
2021/12/28 10:08:05;;;;;;;2.17;1.43;;;12.50;99.90;;;;;;5067480;28;20199;-62
2021/12/28 10:10:41;;;;;;;1.73;1.33;;;13.50;1.00;;;;;;5072496;28;20198;-62
2021/12/28 10:13:16;;;;;;;2.00;1.70;;;12.40;99.90;;;;;;5091208;28;20194;-62
2021/12/28 10:15:45;;;;;;;2.40;1.57;;;11.50;1.00;;;;;;5089458;28;20281;-62
2021/12/28 10:18:13;;;;;;;1.57;1.20;;;10.90;1.00;;;;;;5089608;28;20283;-62
2021/12/28 10:20:44;;;;;;;1.70;1.40;;;10.70;1.00;;;;;;5070643;28;20226;-62
2021/12/28 10:23:14;;;;;;;1.30;1.20;;;10.50;13.40;;;;;;5071870;28;20596;-62
2021/12/28 10:25:44;;;;;;;2.17;1.70;;;10.40;67.90;;;;;;5090085;28;20210;-62
2021/12/28 10:28:31;;;;;;;7.03;2.23;;;10.40;58.20;;;;;;5091982;28;20224;-62
2021/12/28 10:31:06;;;;;;;2.97;2.33;;;10.40;90.40;;;;;;5071896;28;20230;-62
2021/12/28 10:33:36;;;;;;;2.80;1.73;;;10.30;99.90;;;;;;5091396;28;20516;-62
2021/12/28 10:36:13;;;;;;;1.60;1.47;;;10.30;99.90;;;;;;5091156;28;20213;-62
2021/12/28 10:38:47;;;;;;;2.60;1.77;;;10.40;99.90;;;;;;5065101;28;20237;-62
2021/12/28 10:41:18;;;;;;;2.90;2.07;;;11.60;1.00;;;;;;5055307;28;20216;-62
2021/12/28 10:43:49;;;;;;;2.30;1.47;;;14.00;1.00;;;;;;5091818;28;20234;-62
2021/12/28 10:46:25;;;;;;;1.73;1.20;;;13.00;99.90;;;;;;5088349;28;20186;-62
2021/12/28 10:49:00;;;;;;;2.23;1.00;;;11.80;1.00;;;;;;5089593;28;20240;-62
2021/12/28 10:51:34;;;;;;;1.77;0.97;;;11.30;1.00;;;;;;5071938;28;20219;-62
2021/12/28 10:56:34;;;;;;;1.33;0.90;;;10.60;99.90;;;;;;5090270;28;20199;-62
2021/12/28 10:59:03;;;;;;;1.63;1.40;;;10.60;99.90;;;;;;5074063;28;20556;-62
2021/12/28 11:01:32;;;;;;;2.90;1.77;;;10.90;1.00;;;;;;5089675;28;20248;-62
2021/12/28 11:04:10;;;;;;;9.87;5.60;;;11.00;1.00;;;;;;5050893;28;20239;-63
2021/12/28 11:06:44;;;;;;;4.57;4.03;;;10.90;1.00;;;;;;5067016;28;20229;-62
2021/12/28 11:09:16;;;;;;;2.63;1.70;;;10.90;34.00;;;;;;5083764;28;20190;-62
2021/12/28 11:11:44;;;;;;;2.47;1.97;;;10.80;79.70;;;;;;5073558;28;20200;-62
2021/12/28 11:14:18;;;;;;;2.50;1.70;;;10.70;94.40;;;;;;5071633;28;20678;-62
2021/12/28 11:16:52;;;;;;;1.70;1.53;;;10.70;99.90;;;;;;5091807;28;20677;-62
2021/12/28 11:19:28;;;;;;;1.77;1.40;;;10.70;46.50;;;;;;5071304;28;20203;-62
2021/12/28 11:21:58;;;;;;;2.63;1.40;;;10.70;93.40;;;;;;5071120;28;20217;-62
2021/12/28 11:24:30;;;;;;;2.97;1.30;;;10.70;99.90;;;;;;5056986;28;20719;-62
2021/12/28 11:26:57;;;;;;;2.13;1.10;;;10.60;99.90;;;;;;5089289;28;20225;-62
2021/12/28 11:29:41;;;;;;;1.07;0.97;;;10.60;99.90;;;;;;5088250;28;20198;-63
2021/12/28 11:32:17;;;;;;;1.83;1.20;;;10.60;99.90;;;;;;5071792;28;20270;-63
2021/12/28 11:34:46;;;;;;;1.20;1.10;;;10.70;99.90;;;;;;5073619;28;20212;-62
2021/12/28 11:37:17;;;;;;;2.10;1.00;;;10.70;99.90;;;;;;5073969;28;20202;-62
2021/12/28 11:39:48;;;;;;;1.23;1.13;;;10.60;99.90;;;;;;5091651;28;20193;-62
2021/12/28 11:42:20;;;;;;;2.40;1.13;;;10.70;99.90;;;;;;5091418;28;20186;-62
2021/12/28 11:44:48;;;;;;;2.50;1.90;;;10.60;99.90;;;;;;5066506;28;20576;-62
2021/12/28 11:47:17;;;;;;;3.17;1.93;;;10.60;99.90;;;;;;5055612;28;20198;-62
2021/12/28 11:49:46;;;;;;;1.30;1.00;;;10.60;99.90;;;;;;5090872;28;20596;-63
2021/12/28 11:52:16;;;;;;;2.80;1.23;;;10.50;99.90;;;;;;5090707;28;20271;-62
2021/12/28 11:54:46;;;;;;;2.20;1.37;;;10.40;1.00;;;;;;5087401;28;20197;-63
2021/12/28 11:57:26;;;;;;;1.30;1.20;;;10.40;1.00;;;;;;5072677;28;20200;-62
2021/12/28 11:59:56;;;;;;;2.17;1.40;;;10.40;1.00;;;;;;5088534;28;20182;-62
2021/12/28 12:02:49;;;;;;;12.67;8.17;;;10.40;1.00;;;;;;5055687;28;20198;-62
2021/12/28 12:05:16;;;;;;;1.90;1.70;;;10.30;1.00;;;;;;5086580;28;22650;-62
2021/12/28 12:07:44;;;;;;;5.90;5.30;;;10.20;1.00;;;;;;5071005;28;20202;-61
2021/12/28 12:10:27;;;;;;;3.80;2.90;;;10.20;1.00;;;;;;5073355;28;20252;-64
2021/12/28 12:12:57;;;;;;;4.77;2.90;;;10.10;1.00;;;;;;5065697;28;20285;-63
2021/12/28 12:15:33;;;;;;;5.87;3.60;;;10.10;7.90;;;;;;5073023;28;20182;-64
2021/12/28 12:18:02;;;;;;;5.07;3.20;;;10.10;1.00;;;;;;5079639;28;20292;-62
2021/12/28 12:20:34;;;;;;;4.20;2.97;;;10.10;1.00;;;;;;5072367;28;20274;-62
2021/12/28 12:23:23;;;;;;;4.77;3.70;;;10.20;1.00;;;;;;5072874;28;20208;-63
2021/12/28 12:26:09;;;;;;;6.50;4.13;;;10.20;1.00;;;;;;5070301;28;20269;-62
2021/12/28 12:28:48;;;;;;;4.37;3.10;;;10.30;1.00;;;;;;5088174;28;20205;-63
2021/12/28 12:31:31;;;;;;;4.23;2.83;;;10.30;1.00;;;;;;5085784;28;20290;-63
2021/12/28 12:33:59;;;;;;;8.50;5.87;;;10.30;1.00;;;;;;5086668;28;20224;-64
2021/12/28 12:36:35;;;;;;;5.07;4.07;;;10.30;1.00;;;;;;5090412;28;20728;-63
2021/12/28 12:39:04;;;;;;;4.20;2.83;;;10.40;1.00;;;;;;5062648;28;20237;-63
2021/12/28 12:41:50;;;;;;;4.10;2.73;;;10.40;1.00;;;;;;5081675;28;20194;-63
2021/12/28 12:44:23;;;;;;;2.40;1.83;;;10.50;1.00;;;;;;5085655;28;20259;-64
2021/12/28 12:46:52;;;;;;;5.33;3.57;;;10.50;1.00;;;;;;5086742;28;20279;-64
2021/12/28 12:49:30;;;;;;;5.23;3.07;;;10.50;1.00;;;;;;5086104;28;20217;-64
2021/12/28 12:52:16;;;;;;;5.30;4.40;;;10.50;1.00;;;;;;5079010;28;20291;-64
2021/12/28 12:54:45;;;;;;;2.53;2.20;;;10.50;1.00;;;;;;5086389;28;20261;-64
2021/12/28 12:57:21;;;;;;;3.17;2.87;;;10.60;99.90;;;;;;5087144;28;20247;-64
2021/12/28 12:59:55;;;;;;;1.60;1.43;;;10.50;1.00;;;;;;5085574;28;20262;-65
2021/12/28 13:02:27;;;;;;;1.50;1.40;;;10.60;99.90;;;;;;5087177;28;20211;-63
2021/12/28 13:05:01;;;;;;;1.30;1.20;;;10.60;99.90;;;;;;5061662;28;20194;-64
2021/12/28 13:07:31;;;;;;;1.10;0.90;;;10.50;99.90;;;;;;5084638;28;20232;-63
2021/12/28 13:09:59;;;;;;;1.77;1.07;;;10.50;1.00;;;;;;5071335;28;20243;-63